Time;durP1;ratioP1;P1;durP2;ratioP2;P2;SDS_P1;SDS_P2;PMS_P1;PMS_P2;Temp;Humidity;BMP_temperature;BMP_pressure;BME280_temperature;BME280_humidity;BME280_pressure;Samples;Min_cycle;Max_cycle;Signal;HPM_P1;HPM_P2
2022/05/17 16:47:42;;;;;;;3.75;2.58;;;;;;;23.62;47.68;95919.72;5128000;27;20555;-86
2022/05/17 16:50:44;;;;;;;5.47;2.42;;;;;;;23.63;47.96;95914.22;5122292;27;20271;-91
2022/05/17 16:55:19;;;;;;;4.28;2.78;;;;;;;23.91;47.10;95914.94;5097583;27;21043;-87
2022/05/17 16:57:48;;;;;;;5.68;2.63;;;;;;;23.94;47.39;95912.59;5053347;28;20231;-87
2022/05/17 17:00:16;;;;;;;3.15;2.58;;;;;;;23.94;44.52;95907.34;5080872;28;20216;-88
2022/05/17 17:02:43;;;;;;;5.10;2.75;;;;;;;23.99;44.73;95910.03;5089189;28;20869;-87
2022/05/17 17:05:14;;;;;;;3.88;2.63;;;;;;;24.08;45.71;95908.50;5082147;28;20201;-88
2022/05/17 17:07:41;;;;;;;3.70;2.72;;;;;;;24.11;46.66;95905.34;5089952;28;20257;-88
2022/05/17 17:10:08;;;;;;;3.90;2.70;;;;;;;24.14;45.83;95911.16;5081737;28;20281;-87
2022/05/17 17:12:36;;;;;;;2.67;2.47;;;;;;;24.10;45.29;95911.66;5075870;28;20200;-84
2022/05/17 17:15:03;;;;;;;5.60;3.17;;;;;;;24.17;47.59;95918.56;5084977;28;20216;-85
2022/05/17 17:17:33;;;;;;;3.30;2.72;;;;;;;24.14;44.97;95916.41;5078271;28;20189;-85
2022/05/17 17:19:59;;;;;;;3.17;2.75;;;;;;;24.11;45.55;95917.72;5085226;28;20224;-85
2022/05/17 17:22:26;;;;;;;4.07;2.70;;;;;;;24.15;48.28;95920.63;5081905;28;20196;-85
2022/05/17 17:24:52;;;;;;;4.95;3.10;;;;;;;24.19;45.42;95919.09;5085391;28;20277;-84
2022/05/17 17:27:20;;;;;;;3.42;2.58;;;;;;;24.17;45.49;95921.19;5085187;28;20227;-85
2022/05/17 17:29:48;;;;;;;2.85;2.45;;;;;;;24.09;45.39;95925.06;5070434;28;20288;-85
2022/05/17 17:37:42;;;;;;;3.85;2.72;;;;;;;23.95;43.97;95932.59;5073002;28;20277;-83
2022/05/17 17:40:10;;;;;;;2.40;2.20;;;;;;;23.90;43.67;95924.66;5082094;28;20223;-84
2022/05/17 17:42:37;;;;;;;3.50;2.17;;;;;;;23.83;42.39;95925.94;5084175;28;20215;-84
2022/05/17 17:45:07;;;;;;;4.25;2.65;;;;;;;23.84;43.29;95932.78;5083436;28;20196;-83
2022/05/17 17:47:33;;;;;;;3.80;2.83;;;;;;;23.83;43.48;95925.94;5083804;28;20275;-84
2022/05/17 17:50:00;;;;;;;3.60;2.55;;;;;;;23.83;42.85;95924.09;5082050;28;20249;-84
2022/05/17 17:52:26;;;;;;;5.07;2.83;;;;;;;23.86;43.54;95928.84;5077194;28;20197;-84
2022/05/17 17:54:53;;;;;;;3.03;2.50;;;;;;;23.81;43.89;95930.66;5087158;28;20220;-84
2022/05/17 17:57:20;;;;;;;3.30;2.97;;;;;;;23.80;44.24;95934.34;5082774;28;20200;-84
2022/05/17 17:59:47;;;;;;;4.35;2.85;;;;;;;23.82;44.21;95933.03;5082247;28;20220;-84
2022/05/17 18:02:14;;;;;;;3.30;3.00;;;;;;;23.82;44.15;95937.50;5080042;28;20263;-83
2022/05/17 18:04:41;;;;;;;4.57;2.97;;;;;;;23.80;44.08;95943.00;5087356;28;20217;-84
2022/05/17 18:07:07;;;;;;;6.43;2.97;;;;;;;23.74;45.16;95950.06;5068838;28;20239;-83
2022/05/17 18:09:34;;;;;;;3.30;2.88;;;;;;;23.72;45.34;95953.97;5069432;28;20795;-84
2022/05/17 18:12:16;;;;;;;3.45;2.80;;;;;;;23.70;45.19;95956.84;5053588;28;20201;-87
2022/05/17 18:14:42;;;;;;;4.53;3.03;;;;;;;23.68;46.33;95958.16;5065304;28;20291;-84
2022/05/17 18:17:09;;;;;;;3.75;3.00;;;;;;;23.64;45.44;95960.50;5072125;28;20250;-86
2022/05/17 18:19:37;;;;;;;2.78;2.55;;;;;;;23.52;45.91;95954.59;5070516;28;20225;-86
2022/05/17 18:22:05;;;;;;;5.72;2.70;;;;;;;23.46;46.08;95950.31;5051089;28;20193;-86
2022/05/17 18:24:31;;;;;;;3.53;2.85;;;;;;;23.40;46.39;95952.09;5071051;28;20208;-86
2022/05/17 18:27:01;;;;;;;3.67;3.38;;;;;;;23.40;46.78;95962.59;5072761;28;20773;-85
2022/05/17 18:29:31;;;;;;;3.30;3.00;;;;;;;23.45;46.76;95964.50;5068870;28;20225;-86
2022/05/17 18:32:00;;;;;;;4.53;2.97;;;;;;;23.34;47.05;95965.41;5060117;28;20288;-85
2022/05/17 18:37:13;;;;;;;4.07;3.20;;;;;;;23.18;47.67;95967.09;5075486;28;20266;-85
2022/05/17 18:39:40;;;;;;;3.45;3.00;;;;;;;23.12;47.84;95978.56;5068843;28;20221;-85
2022/05/17 18:42:07;;;;;;;4.93;3.40;;;;;;;23.04;48.45;95982.44;5067404;28;20192;-86
2022/05/17 18:44:33;;;;;;;3.60;3.30;;;;;;;23.00;48.53;95977.91;5071506;28;20209;-85
2022/05/17 18:47:03;;;;;;;4.13;3.03;;;;;;;22.90;49.38;95983.06;5077667;28;20223;-86
2022/05/17 18:49:33;;;;;;;5.88;3.20;;;;;;;22.86;49.33;95984.59;5072225;28;20220;-86
2022/05/17 18:52:01;;;;;;;3.05;2.70;;;;;;;22.78;49.75;95982.38;5075139;28;20227;-87
2022/05/17 18:54:29;;;;;;;3.50;3.20;;;;;;;22.70;50.32;95986.19;5068316;28;20228;-86
2022/05/17 18:56:57;;;;;;;3.70;3.40;;;;;;;22.71;50.30;95988.53;5061852;28;20292;-85
2022/05/17 18:59:26;;;;;;;4.95;3.20;;;;;;;22.62;50.61;95995.25;5071414;28;20228;-85
2022/05/17 19:01:53;;;;;;;3.72;3.20;;;;;;;22.54;51.00;95989.63;5076378;28;20205;-86
2022/05/17 19:04:21;;;;;;;4.15;3.45;;;;;;;22.46;51.57;95990.03;5066981;28;20209;-86
2022/05/17 19:06:48;;;;;;;5.47;3.15;;;;;;;22.36;51.82;95993.31;5057922;28;20231;-86
2022/05/17 19:14:46;;;;;;;4.25;3.22;;;;;;;22.35;52.54;95994.34;5066182;28;20707;-86
2022/05/17 19:17:14;;;;;;;3.53;3.28;;;;;;;22.25;53.12;96002.88;5059787;28;20912;-85
2022/05/17 19:19:43;;;;;;;4.15;3.60;;;;;;;22.18;53.59;96007.47;5066596;28;20216;-86
2022/05/17 19:22:13;;;;;;;4.22;3.83;;;;;;;22.14;53.33;96008.97;5066313;28;20718;-86
2022/05/17 19:24:40;;;;;;;4.13;3.65;;;;;;;22.11;53.53;96011.31;5057441;28;20244;-85
2022/05/17 19:27:08;;;;;;;4.50;4.00;;;;;;;22.12;54.12;96010.28;5065530;28;20201;-85
2022/05/17 19:29:37;;;;;;;4.20;3.42;;;;;;;22.01;54.55;96010.09;5068091;28;20220;-86
2022/05/17 19:32:07;;;;;;;5.13;4.32;;;;;;;21.98;54.76;96017.59;5065490;28;20567;-86
2022/05/17 19:34:36;;;;;;;5.25;4.30;;;;;;;22.02;54.32;96016.94;5074983;28;20227;-86
2022/05/17 19:39:53;;;;;;;6.28;3.70;;;;;;;21.96;54.79;96019.66;5066452;28;20236;-86
2022/05/17 19:42:20;;;;;;;5.68;3.70;;;;;;;21.95;54.35;96026.72;5067540;28;20202;-86
2022/05/17 19:44:47;;;;;;;4.57;4.18;;;;;;;21.95;54.86;96031.97;5066843;28;20213;-87
2022/05/17 19:47:17;;;;;;;7.00;4.30;;;;;;;21.92;54.95;96034.31;5071922;28;20255;-85
2022/05/17 19:49:46;;;;;;;4.90;3.97;;;;;;;21.88;54.82;96028.72;5067348;28;20193;-86
2022/05/17 19:52:13;;;;;;;5.88;4.40;;;;;;;21.86;54.75;96041.28;5070133;28;20224;-87
2022/05/17 21:58:38;;;;;;;6.25;5.40;;;;;;;19.80;61.91;96075.75;4986774;28;20522;-92
2022/05/17 22:01:05;;;;;;;6.45;5.85;;;;;;;19.79;61.50;96067.09;4973629;28;20188;-91
2022/05/17 22:03:35;;;;;;;6.10;5.40;;;;;;;19.91;60.96;96069.75;4973261;28;20579;-91
2022/05/17 22:06:01;;;;;;;5.75;5.25;;;;;;;19.91;61.59;96077.59;4984354;28;20200;-91
2022/05/17 22:08:28;;;;;;;7.25;5.60;;;;;;;19.83;61.58;96077.88;4973046;28;20232;-92
2022/05/17 22:13:46;;;;;;;6.15;5.55;;;;;;;19.87;61.80;96085.06;4973653;28;20211;-91
2022/05/17 22:16:15;;;;;;;5.72;5.10;;;;;;;19.77;62.13;96086.63;4967060;28;20227;-91
2022/05/17 22:18:42;;;;;;;7.32;5.32;;;;;;;19.68;62.26;96083.50;4959363;28;20233;-92
2022/05/17 22:21:09;;;;;;;5.85;5.25;;;;;;;19.67;62.63;96084.53;4966345;28;20652;-91
2022/05/17 22:23:36;;;;;;;6.53;5.45;;;;;;;19.66;63.03;96088.97;4974331;28;20296;-90
2022/05/17 22:26:03;;;;;;;7.50;5.25;;;;;;;19.63;62.10;96086.78;4965931;28;20204;-91
2022/05/17 22:28:30;;;;;;;10.07;4.93;;;;;;;19.61;62.51;96098.50;4966250;28;20217;-91
2022/05/17 22:30:59;;;;;;;6.35;5.50;;;;;;;19.52;62.79;96098.00;4964289;28;20215;-91
2022/05/17 22:33:26;;;;;;;5.90;5.38;;;;;;;19.37;63.40;96099.34;4967840;28;20194;-92
2022/05/17 22:35:55;;;;;;;7.18;5.30;;;;;;;19.41;62.83;96096.09;4971818;28;20219;-91
2022/05/17 22:38:22;;;;;;;5.97;5.38;;;;;;;19.53;62.34;96096.97;4968074;28;20228;-91
2022/05/17 22:41:01;;;;;;;6.82;5.63;;;;;;;19.51;62.85;96090.38;4963353;28;20211;-91
2022/05/17 22:43:28;;;;;;;7.63;5.30;;;;;;;19.48;62.69;96088.97;4968437;28;20216;-92
2022/05/17 22:48:49;;;;;;;7.07;5.32;;;;;;;19.49;62.95;96087.94;4967046;28;20239;-91
2022/05/17 22:51:18;;;;;;;5.70;5.05;;;;;;;19.47;63.15;96089.97;4972919;28;20671;-91
2022/05/17 22:53:45;;;;;;;5.45;4.95;;;;;;;19.50;63.23;96084.34;4968121;28;20572;-92
2022/05/17 22:56:16;;;;;;;7.43;5.90;;;;;;;19.54;62.66;96079.50;4969700;28;20355;-91
2022/05/17 22:58:46;;;;;;;7.32;5.53;;;;;;;19.49;62.93;96084.53;4966719;28;20237;-91
2022/05/17 23:01:14;;;;;;;6.07;5.47;;;;;;;19.34;63.63;96084.91;4970063;28;20196;-92
2022/05/17 23:03:40;;;;;;;6.05;5.45;;;;;;;19.28;63.53;96093.63;4968761;28;20199;-91
2022/05/17 23:06:06;;;;;;;6.30;5.55;;;;;;;19.18;64.33;96088.91;4971704;28;20208;-91
2022/05/17 23:08:45;;;;;;;8.68;5.72;;;;;;;19.03;64.96;96085.88;4962732;28;20234;-90
2022/05/17 23:11:13;;;;;;;5.85;5.35;;;;;;;19.07;64.31;96081.78;4957560;28;20200;-91
2022/05/17 23:13:41;;;;;;;5.82;5.32;;;;;;;18.96;64.70;96090.34;4970476;28;20200;-92
2022/05/17 23:16:07;;;;;;;6.45;5.85;;;;;;;18.96;64.26;96082.53;4973478;28;20220;-91
2022/05/17 23:18:36;;;;;;;6.35;5.72;;;;;;;18.92;65.06;96081.34;4968430;28;20224;-92
2022/05/17 23:21:05;;;;;;;6.53;5.93;;;;;;;18.90;65.14;96091.22;4974416;28;20234;-92
2022/05/17 23:23:32;;;;;;;7.35;5.70;;;;;;;18.95;64.84;96088.75;4969026;28;20283;-91
2022/05/17 23:28:45;;;;;;;5.55;5.05;;;;;;;18.98;64.59;96096.97;4968591;28;20271;-92
2022/05/17 23:31:20;;;;;;;6.13;5.53;;;;;;;18.96;64.60;96098.97;4966027;28;20196;-92
2022/05/17 23:34:09;;;;;;;6.57;5.63;;;;;;;18.95;64.89;96100.00;4970499;28;20270;-92
2022/05/17 23:36:41;;;;;;;6.95;5.50;;;;;;;18.86;65.17;96101.28;4970127;28;20299;-91
2022/05/17 23:39:10;;;;;;;6.30;5.40;;;;;;;18.77;65.44;96097.34;4955547;28;20227;-91
2022/05/17 23:41:37;;;;;;;6.05;5.45;;;;;;;18.79;65.63;96102.38;4965624;28;20226;-91
2022/05/17 23:44:04;;;;;;;5.68;5.15;;;;;;;18.77;65.91;96101.78;4934644;29;20202;-91
2022/05/17 23:46:31;;;;;;;6.18;5.45;;;;;;;18.71;66.14;96095.59;4965941;28;20259;-91
2022/05/17 23:48:58;;;;;;;5.40;4.95;;;;;;;18.71;65.57;96105.22;4970629;28;20718;-91
2022/05/17 23:51:26;;;;;;;6.45;5.35;;;;;;;18.62;66.38;96104.72;4967812;28;20226;-92
2022/05/17 23:53:52;;;;;;;6.88;5.20;;;;;;;18.62;65.73;96115.97;4969618;28;20200;-90
2022/05/17 23:56:21;;;;;;;5.63;5.13;;;;;;;18.49;66.43;96110.78;4965208;28;20224;-92
2022/05/17 23:58:48;;;;;;;5.88;5.30;;;;;;;18.52;66.33;96104.34;4969796;28;20220;-92
